Time;durP1;ratioP1;P1;durP2;ratioP2;P2;SDS_P1;SDS_P2;PMS_P1;PMS_P2;Temp;Humidity;BMP_temperature;BMP_pressure;BME280_temperature;BME280_humidity;BME280_pressure;Samples;Min_cycle;Max_cycle;Signal;HPM_P1;HPM_P2
2021/10/08 00:01:38;;;;;;;3.17;2.88;;;15.70;80.00;;;;;;4839195;29;20049;-91
2021/10/08 00:04:04;;;;;;;4.07;3.65;;;15.70;80.10;;;;;;4838031;29;20121;-81
2021/10/08 00:06:31;;;;;;;3.08;2.65;;;15.70;80.10;;;;;;4837079;29;20105;-81
2021/10/08 00:08:58;;;;;;;3.13;2.83;;;15.60;80.00;;;;;;4845005;29;20041;-82
2021/10/08 00:11:25;;;;;;;3.28;2.97;;;15.60;80.00;;;;;;4852162;29;20026;-89
2021/10/08 00:13:52;;;;;;;3.75;3.22;;;15.60;80.00;;;;;;4855107;29;20037;-81
2021/10/08 00:16:18;;;;;;;4.25;3.35;;;15.60;80.10;;;;;;4855389;29;20419;-81
2021/10/08 00:18:45;;;;;;;3.55;3.25;;;15.60;80.10;;;;;;4852855;29;20572;-81
2021/10/08 00:21:11;;;;;;;4.20;3.38;;;15.50;80.00;;;;;;4855478;29;20447;-81
2021/10/08 00:23:37;;;;;;;3.10;2.78;;;15.50;80.00;;;;;;4855149;29;20116;-82
2021/10/08 00:26:04;;;;;;;3.17;2.70;;;15.50;80.00;;;;;;4843345;29;20554;-82
2021/10/08 00:28:30;;;;;;;3.15;2.85;;;15.40;79.90;;;;;;4839515;29;20022;-82
2021/10/08 00:30:56;;;;;;;4.93;3.40;;;15.40;79.90;;;;;;4845086;29;20477;-81
2021/10/08 00:33:22;;;;;;;4.07;3.00;;;15.40;79.90;;;;;;4837917;29;20099;-80
2021/10/08 00:35:49;;;;;;;3.45;2.80;;;15.40;79.90;;;;;;4835196;29;20042;-81
2021/10/08 00:38:15;;;;;;;3.42;3.13;;;15.30;79.80;;;;;;4835401;29;20138;-80
2021/10/08 00:40:45;;;;;;;3.45;2.95;;;15.30;79.80;;;;;;4835108;29;20038;-80
2021/10/08 00:43:11;;;;;;;3.83;2.35;;;15.30;79.90;;;;;;4835937;29;20026;-82
2021/10/08 00:45:38;;;;;;;3.38;3.08;;;15.30;80.00;;;;;;4835339;29;20037;-80
2021/10/08 00:48:06;;;;;;;2.85;2.60;;;15.30;80.00;;;;;;4852202;29;20411;-82
2021/10/08 00:50:37;;;;;;;2.83;2.58;;;15.20;79.90;;;;;;4836075;29;20505;-83
2021/10/08 00:53:07;;;;;;;3.53;2.75;;;15.20;80.00;;;;;;4835538;29;20045;-84
2021/10/08 00:55:46;;;;;;;3.40;2.90;;;15.20;80.00;;;;;;4835885;29;20551;-85
2021/10/08 00:58:14;;;;;;;2.95;2.67;;;15.20;80.20;;;;;;4821578;29;20041;-83
2021/10/08 01:00:42;;;;;;;3.25;2.42;;;15.20;80.20;;;;;;4852515;29;20072;-80
2021/10/08 01:03:08;;;;;;;3.10;2.80;;;15.20;80.30;;;;;;4854143;29;20029;-83
2021/10/08 01:05:34;;;;;;;3.72;3.00;;;15.20;80.40;;;;;;4853849;29;20038;-82
2021/10/08 01:08:00;;;;;;;2.97;2.67;;;15.20;80.40;;;;;;4852987;29;20113;-82
2021/10/08 01:10:26;;;;;;;3.15;2.17;;;15.20;80.50;;;;;;4851975;29;20497;-82
2021/10/08 01:12:53;;;;;;;3.20;2.90;;;15.20;80.50;;;;;;4852779;29;20037;-82
2021/10/08 01:15:21;;;;;;;2.90;2.45;;;15.20;80.50;;;;;;4852881;29;20041;-82
2021/10/08 01:17:53;;;;;;;3.42;2.53;;;15.20;80.50;;;;;;4837162;29;20359;-83
2021/10/08 01:20:20;;;;;;;4.07;3.10;;;15.30;80.70;;;;;;4834333;29;20410;-82
2021/10/08 01:22:58;;;;;;;2.70;2.50;;;15.20;80.50;;;;;;4833893;29;20042;-83
2021/10/08 01:25:32;;;;;;;2.55;2.30;;;15.30;80.70;;;;;;4835217;29;20402;-82
2021/10/08 01:28:03;;;;;;;2.60;2.35;;;15.20;80.50;;;;;;4837953;29;20105;-82
2021/10/08 01:30:36;;;;;;;2.80;2.22;;;15.30;80.60;;;;;;4823767;29;20050;-85
2021/10/08 01:33:04;;;;;;;2.53;2.33;;;15.30;80.60;;;;;;4859562;29;20045;-81
2021/10/08 01:35:31;;;;;;;3.90;2.70;;;15.30;80.60;;;;;;4854868;29;20571;-86
2021/10/08 01:37:59;;;;;;;4.28;2.85;;;15.30;80.50;;;;;;4849255;29;20099;-83
2021/10/08 01:40:26;;;;;;;2.97;2.67;;;15.30;80.50;;;;;;4845050;29;20136;-81
2021/10/08 01:43:00;;;;;;;2.60;2.40;;;15.20;80.30;;;;;;4851578;29;20428;-84
2021/10/08 01:45:27;;;;;;;3.03;2.28;;;15.30;80.50;;;;;;4838914;29;20440;-83
2021/10/08 01:47:53;;;;;;;2.88;2.53;;;15.20;80.40;;;;;;4850588;29;20081;-86
2021/10/08 01:50:19;;;;;;;5.40;2.63;;;15.20;80.40;;;;;;4840722;29;20197;-81
2021/10/08 01:52:47;;;;;;;2.20;2.00;;;15.20;80.40;;;;;;4855126;29;20038;-83
2021/10/08 01:55:16;;;;;;;3.72;2.15;;;15.30;80.60;;;;;;4855595;29;20052;-81
2021/10/08 01:57:52;;;;;;;2.58;2.10;;;15.30;80.60;;;;;;4873178;29;20026;-84
2021/10/08 02:00:18;;;;;;;1.75;1.60;;;15.30;80.70;;;;;;4857240;29;20055;-83
2021/10/08 02:02:53;;;;;;;3.55;2.38;;;15.30;80.60;;;;;;4857761;29;20041;-85
2021/10/08 02:05:23;;;;;;;3.10;2.35;;;15.30;80.60;;;;;;4857721;29;20089;-84
2021/10/08 02:07:50;;;;;;;3.08;2.10;;;15.30;80.60;;;;;;4858078;29;20033;-82
2021/10/08 02:10:22;;;;;;;3.03;2.30;;;15.30;80.60;;;;;;4845567;29;20041;-80
2021/10/08 02:12:48;;;;;;;2.45;2.13;;;15.30;80.70;;;;;;4839149;29;20505;-81
2021/10/08 02:15:14;;;;;;;3.90;2.45;;;15.30;80.60;;;;;;4846706;29;20041;-81
2021/10/08 02:17:41;;;;;;;3.35;2.05;;;15.30;80.60;;;;;;4844860;29;20402;-80
2021/10/08 02:20:07;;;;;;;2.50;2.30;;;15.30;80.60;;;;;;4847521;29;20033;-81
2021/10/08 02:22:37;;;;;;;2.13;1.92;;;15.30;80.60;;;;;;4844851;29;20040;-85
2021/10/08 02:25:05;;;;;;;2.50;2.30;;;15.30;80.60;;;;;;4858151;29;20053;-82
2021/10/08 02:27:32;;;;;;;3.53;2.45;;;15.30;80.50;;;;;;4857271;29;20037;-82
2021/10/08 02:29:58;;;;;;;3.10;2.60;;;15.30;80.50;;;;;;4857333;29;20489;-82
2021/10/08 02:32:25;;;;;;;2.53;1.80;;;15.30;80.50;;;;;;4857349;29;20036;-88
2021/10/08 02:34:53;;;;;;;3.95;2.05;;;15.30;80.50;;;;;;4851221;29;20490;-83
2021/10/08 02:37:19;;;;;;;2.25;2.08;;;15.30;80.60;;;;;;4838852;29;20086;-81
2021/10/08 02:39:44;;;;;;;2.70;2.42;;;15.30;80.50;;;;;;4838819;29;20045;-85
2021/10/08 02:42:10;;;;;;;2.42;2.10;;;15.40;80.70;;;;;;4839650;29;20049;-84
2021/10/08 02:44:38;;;;;;;4.10;2.22;;;15.30;80.50;;;;;;4826914;29;20026;-81
2021/10/08 02:47:04;;;;;;;1.98;1.75;;;15.30;80.50;;;;;;4851570;29;20446;-80
2021/10/08 02:49:32;;;;;;;3.20;1.95;;;15.30;80.50;;;;;;4861393;29;20112;-81
2021/10/08 02:51:58;;;;;;;2.58;2.03;;;15.30;80.60;;;;;;4860436;29;20089;-79
2021/10/08 02:54:24;;;;;;;2.40;2.20;;;15.30;80.50;;;;;;4859910;29;20025;-82
2021/10/08 02:56:50;;;;;;;2.30;1.90;;;15.30;80.50;;;;;;4861006;29;20037;-82
2021/10/08 02:59:16;;;;;;;2.58;2.00;;;15.40;80.80;;;;;;4860580;29;20037;-82
2021/10/08 03:01:44;;;;;;;4.10;2.13;;;15.40;80.70;;;;;;4860160;29;20042;-80
2021/10/08 03:04:10;;;;;;;3.53;2.00;;;15.40;80.70;;;;;;4861182;29;20124;-81
2021/10/08 03:06:36;;;;;;;2.33;1.95;;;15.40;80.70;;;;;;4859875;29;20116;-82
2021/10/08 03:09:06;;;;;;;3.60;2.08;;;15.40;80.70;;;;;;4859604;29;20057;-81
2021/10/08 03:11:32;;;;;;;2.30;2.10;;;15.40;80.70;;;;;;4859617;29;20025;-83
2021/10/08 03:13:58;;;;;;;2.05;1.45;;;15.40;80.70;;;;;;4860536;29;20029;-82
2021/10/08 03:16:25;;;;;;;2.28;1.90;;;15.50;80.90;;;;;;4860037;29;20521;-81
2021/10/08 03:18:51;;;;;;;1.88;1.77;;;15.50;80.80;;;;;;4861148;29;20033;-81
2021/10/08 03:21:17;;;;;;;3.08;2.00;;;15.40;80.60;;;;;;4859551;29;20068;-83
2021/10/08 03:23:44;;;;;;;2.97;2.13;;;15.50;80.80;;;;;;4859802;29;20058;-83
2021/10/08 03:26:10;;;;;;;3.03;2.22;;;15.50;80.80;;;;;;4860899;29;20044;-83
2021/10/08 03:28:37;;;;;;;2.00;1.80;;;15.50;80.80;;;;;;4875606;29;20029;-83
2021/10/08 03:31:05;;;;;;;2.03;1.83;;;15.50;80.70;;;;;;4861140;29;20446;-81
2021/10/08 03:33:32;;;;;;;2.10;1.92;;;15.50;80.70;;;;;;4859771;29;20049;-82
2021/10/08 03:35:58;;;;;;;2.33;2.13;;;15.40;80.50;;;;;;4860694;29;20042;-82
2021/10/08 03:38:24;;;;;;;1.98;1.73;;;15.50;80.70;;;;;;4860949;29;20034;-82
2021/10/08 03:41:10;;;;;;;3.70;2.47;;;15.50;80.70;;;;;;4859862;29;20391;-82
2021/10/08 03:43:37;;;;;;;2.70;2.13;;;15.50;80.70;;;;;;4860208;29;20393;-82
2021/10/08 03:46:08;;;;;;;2.00;1.70;;;15.50;80.70;;;;;;4859705;29;20081;-82
2021/10/08 03:51:26;;;;;;;2.35;1.45;;;15.50;80.70;;;;;;4859387;29;20037;-81
2021/10/08 03:53:52;;;;;;;1.83;1.70;;;15.50;80.60;;;;;;4860392;29;20554;-81
2021/10/08 03:56:18;;;;;;;1.67;1.42;;;15.50;80.70;;;;;;4859332;29;20030;-81
2021/10/08 03:58:44;;;;;;;3.30;2.00;;;15.50;80.70;;;;;;4860272;29;20037;-84
2021/10/08 04:01:10;;;;;;;2.40;2.00;;;15.50;80.70;;;;;;4859172;29;20069;-80
2021/10/08 04:03:37;;;;;;;2.28;1.35;;;15.60;80.80;;;;;;4859427;29;20030;-81
2021/10/08 04:06:05;;;;;;;1.60;1.40;;;15.50;80.70;;;;;;4859993;29;20029;-80
2021/10/08 04:08:31;;;;;;;2.10;1.58;;;15.60;80.80;;;;;;4859456;29;20036;-80
2021/10/08 04:10:58;;;;;;;2.08;1.48;;;15.60;80.80;;;;;;4858567;29;20041;-79
2021/10/08 04:13:25;;;;;;;2.30;1.85;;;15.60;80.80;;;;;;4844310;29;20505;-79
2021/10/08 04:15:51;;;;;;;3.42;1.98;;;15.60;80.80;;;;;;4858520;29;20094;-81
2021/10/08 04:18:18;;;;;;;1.65;1.55;;;15.60;80.80;;;;;;4859150;29;20037;-80
2021/10/08 04:20:44;;;;;;;1.52;1.40;;;15.60;80.80;;;;;;4843489;29;20140;-81
2021/10/08 04:23:12;;;;;;;2.35;1.50;;;15.60;80.80;;;;;;4843541;29;20029;-80
2021/10/08 04:25:40;;;;;;;1.98;1.45;;;15.60;80.70;;;;;;4858808;29;20034;-80
2021/10/08 04:28:07;;;;;;;1.63;1.52;;;15.60;80.70;;;;;;4858577;29;20029;-82
2021/10/08 04:30:35;;;;;;;2.38;1.70;;;15.60;80.70;;;;;;4859607;29;20061;-83
2021/10/08 04:33:11;;;;;;;1.48;1.30;;;15.60;80.70;;;;;;4858670;29;20067;-81
2021/10/08 04:35:37;;;;;;;1.73;1.48;;;15.60;80.70;;;;;;4859369;29;20517;-83
2021/10/08 04:38:04;;;;;;;1.40;1.13;;;15.70;80.80;;;;;;4858993;29;20037;-81
2021/10/08 04:40:30;;;;;;;2.45;1.48;;;15.70;80.80;;;;;;4858345;29;20038;-83
2021/10/08 04:42:56;;;;;;;2.20;1.88;;;15.70;80.80;;;;;;4858331;29;20041;-84
2021/10/08 04:45:22;;;;;;;1.88;1.50;;;15.60;80.70;;;;;;4857438;29;20521;-81
2021/10/08 04:47:48;;;;;;;2.47;1.60;;;15.70;80.80;;;;;;4854882;29;20063;-81
2021/10/08 04:50:14;;;;;;;1.80;1.55;;;15.60;80.60;;;;;;4854817;29;20056;-86
2021/10/08 04:52:43;;;;;;;1.38;1.25;;;15.70;80.80;;;;;;4851626;29;20490;-86
2021/10/08 04:55:09;;;;;;;1.63;1.33;;;15.70;80.80;;;;;;4867587;29;20030;-82
2021/10/08 04:57:35;;;;;;;1.77;1.48;;;15.70;80.80;;;;;;4851059;29;20505;-82
2021/10/08 05:00:03;;;;;;;1.52;1.38;;;15.70;80.80;;;;;;4849328;29;20045;-81
2021/10/08 05:02:29;;;;;;;3.08;2.05;;;15.70;80.80;;;;;;4846657;29;20034;-82
2021/10/08 05:04:56;;;;;;;1.25;1.15;;;15.60;80.70;;;;;;4829167;29;20406;-82
2021/10/08 05:07:22;;;;;;;1.77;1.42;;;15.70;80.80;;;;;;4843981;29;20303;-81
2021/10/08 05:09:48;;;;;;;3.63;1.85;;;15.70;80.80;;;;;;4845213;29;20033;-81
2021/10/08 05:12:15;;;;;;;1.55;1.40;;;15.70;80.90;;;;;;4843417;29;20034;-81
2021/10/08 05:14:41;;;;;;;2.13;1.60;;;15.70;80.90;;;;;;4854257;29;20080;-82
2021/10/08 05:17:08;;;;;;;1.98;1.77;;;15.70;80.90;;;;;;4853683;29;20439;-83
2021/10/08 05:19:34;;;;;;;2.50;1.70;;;15.70;80.90;;;;;;4850113;29;20044;-81
2021/10/08 05:22:09;;;;;;;1.70;1.50;;;15.70;80.90;;;;;;4850659;29;20057;-82
2021/10/08 05:24:36;;;;;;;3.00;1.40;;;15.70;80.90;;;;;;4835035;29;20551;-87
2021/10/08 05:27:03;;;;;;;2.03;1.50;;;15.70;80.90;;;;;;4850047;29;20037;-83
2021/10/08 05:29:31;;;;;;;2.53;1.70;;;15.80;81.10;;;;;;4844549;29;20547;-86
2021/10/08 05:31:57;;;;;;;1.75;1.40;;;15.80;81.10;;;;;;4874794;29;20049;-83
2021/10/08 05:34:23;;;;;;;2.50;1.88;;;15.80;81.00;;;;;;4861592;29;20165;-84
2021/10/08 05:36:49;;;;;;;2.05;1.92;;;15.80;81.10;;;;;;4855825;29;20072;-84
2021/10/08 05:39:19;;;;;;;1.95;1.50;;;15.80;81.10;;;;;;4852802;29;20597;-86
2021/10/08 05:41:45;;;;;;;2.35;1.40;;;15.80;81.00;;;;;;4853703;29;20406;-89
2021/10/08 05:44:11;;;;;;;2.50;1.33;;;15.80;81.00;;;;;;4825046;29;20030;-87
2021/10/08 05:46:38;;;;;;;1.50;1.33;;;15.90;81.20;;;;;;4842550;29;20041;-84
2021/10/08 05:49:04;;;;;;;2.28;1.73;;;15.90;81.20;;;;;;4840530;29;20053;-82
2021/10/08 05:51:30;;;;;;;2.15;1.63;;;15.90;81.30;;;;;;4835867;29;20511;-84
2021/10/08 05:53:57;;;;;;;2.70;1.52;;;15.90;81.30;;;;;;4835193;29;20046;-83
2021/10/08 05:56:23;;;;;;;3.05;1.60;;;15.90;81.30;;;;;;4836898;29;20049;-87
2021/10/08 05:58:49;;;;;;;2.35;2.15;;;15.90;81.30;;;;;;4825853;29;20040;-84
2021/10/08 06:01:16;;;;;;;1.65;1.55;;;15.90;81.30;;;;;;4834706;29;20056;-84
2021/10/08 06:03:42;;;;;;;2.42;2.08;;;15.90;81.30;;;;;;4848632;29;20561;-84
2021/10/08 06:06:08;;;;;;;2.38;1.80;;;15.90;81.30;;;;;;4838515;29;20029;-87
2021/10/08 06:08:34;;;;;;;3.63;1.77;;;15.90;81.30;;;;;;4845827;29;20038;-86
2021/10/08 06:11:00;;;;;;;2.28;1.95;;;16.00;81.50;;;;;;4838575;29;20251;-86
2021/10/08 06:13:28;;;;;;;2.70;1.83;;;16.00;81.50;;;;;;4835443;29;20132;-87
2021/10/08 06:15:54;;;;;;;2.60;2.00;;;15.90;81.30;;;;;;4822694;29;20086;-84
2021/10/08 06:18:22;;;;;;;2.58;1.90;;;16.00;81.50;;;;;;4854991;29;20065;-90
2021/10/08 06:20:49;;;;;;;2.45;1.70;;;16.00;81.50;;;;;;4841155;29;20122;-80
2021/10/08 06:23:17;;;;;;;2.38;1.50;;;16.00;81.50;;;;;;4839547;29;20097;-87
2021/10/08 06:25:43;;;;;;;2.08;1.38;;;16.00;81.40;;;;;;4839561;29;20521;-83
2021/10/08 06:28:10;;;;;;;2.85;2.17;;;16.00;81.40;;;;;;4841392;29;20422;-81
2021/10/08 06:30:37;;;;;;;2.35;1.67;;;16.00;81.40;;;;;;4852876;29;20569;-77
2021/10/08 06:33:03;;;;;;;2.83;1.67;;;16.00;81.40;;;;;;4848164;29;20108;-78
2021/10/08 06:35:32;;;;;;;2.75;1.48;;;16.00;81.40;;;;;;4841140;29;20030;-78
2021/10/08 06:37:59;;;;;;;2.60;1.88;;;16.00;81.40;;;;;;4853508;29;20117;-78
2021/10/08 06:40:26;;;;;;;5.28;2.53;;;15.90;81.20;;;;;;4855135;29;20064;-84
2021/10/08 06:42:53;;;;;;;2.28;2.08;;;15.90;81.20;;;;;;4854450;29;20579;-84
2021/10/08 06:45:43;;;;;;;2.00;1.80;;;16.00;81.40;;;;;;4861752;29;20041;-78
2021/10/08 06:48:12;;;;;;;1.95;1.80;;;16.00;81.40;;;;;;4854220;29;20053;-80
2021/10/08 06:50:42;;;;;;;2.40;2.05;;;16.00;81.40;;;;;;4852277;29;20402;-79
2021/10/08 06:53:11;;;;;;;2.67;1.67;;;16.00;81.40;;;;;;4844775;29;20128;-78
2021/10/08 06:55:39;;;;;;;2.92;1.55;;;16.00;81.40;;;;;;4847988;29;20490;-78
2021/10/08 06:58:06;;;;;;;1.75;1.58;;;16.00;81.40;;;;;;4854142;29;20033;-79
2021/10/08 07:00:33;;;;;;;1.83;1.35;;;16.10;81.60;;;;;;4854223;29;20094;-78
2021/10/08 07:02:59;;;;;;;1.80;1.67;;;16.00;81.40;;;;;;4847773;29;20038;-80
2021/10/08 07:05:30;;;;;;;2.88;1.92;;;16.10;81.60;;;;;;4836176;29;20121;-79
2021/10/08 07:07:58;;;;;;;2.10;1.85;;;16.10;81.50;;;;;;4840728;29;20394;-80
2021/10/08 07:10:26;;;;;;;2.20;1.80;;;16.10;81.50;;;;;;4855437;29;20468;-78
2021/10/08 07:12:52;;;;;;;2.67;2.25;;;16.10;81.40;;;;;;4854790;29;20398;-80
2021/10/08 07:15:18;;;;;;;3.13;1.80;;;16.10;81.40;;;;;;4870454;29;20026;-78
2021/10/08 07:17:50;;;;;;;3.13;1.75;;;16.10;81.40;;;;;;4855199;29;20128;-78
2021/10/08 07:20:22;;;;;;;4.43;2.05;;;16.20;81.50;;;;;;4855111;29;20030;-79
2021/10/08 07:22:49;;;;;;;2.22;1.75;;;16.20;81.50;;;;;;4856774;29;20073;-86
2021/10/08 07:25:15;;;;;;;3.35;2.30;;;16.20;81.50;;;;;;4856533;29;20132;-78
2021/10/08 07:27:43;;;;;;;3.47;1.95;;;16.30;81.60;;;;;;4856379;29;20030;-79
2021/10/08 07:30:10;;;;;;;3.17;1.90;;;16.20;81.40;;;;;;4855999;29;20033;-78
2021/10/08 07:32:36;;;;;;;3.20;2.10;;;16.30;81.50;;;;;;4854880;29;20094;-80
2021/10/08 07:35:03;;;;;;;3.25;2.22;;;16.30;81.50;;;;;;4856526;29;20042;-79
2021/10/08 07:37:30;;;;;;;3.45;2.03;;;16.30;82.00;;;;;;4845943;29;20037;-78
2021/10/08 07:39:56;;;;;;;4.38;2.38;;;16.30;81.40;;;;;;4840415;29;20037;-78
2021/10/08 07:42:24;;;;;;;2.00;1.80;;;16.40;81.60;;;;;;4853059;29;20064;-80
2021/10/08 07:44:50;;;;;;;2.67;2.00;;;16.40;81.50;;;;;;4838086;29;20033;-78
2021/10/08 07:47:16;;;;;;;6.70;2.75;;;16.40;81.40;;;;;;4850133;29;20105;-79
2021/10/08 07:49:43;;;;;;;4.30;2.08;;;16.50;81.50;;;;;;4839596;29;20045;-78
2021/10/08 07:52:09;;;;;;;3.15;2.08;;;16.50;81.50;;;;;;4838659;29;20041;-81
2021/10/08 07:54:35;;;;;;;2.60;1.60;;;16.60;81.60;;;;;;4837869;29;20065;-84
2021/10/08 07:57:01;;;;;;;2.42;1.90;;;16.50;81.40;;;;;;4836618;29;20038;-78
2021/10/08 07:59:27;;;;;;;2.58;2.15;;;16.60;81.50;;;;;;4838209;29;20036;-88
2021/10/08 08:01:53;;;;;;;3.08;1.95;;;16.70;81.60;;;;;;4837610;29;20502;-87
2021/10/08 08:04:19;;;;;;;5.07;2.17;;;16.70;81.50;;;;;;4839069;29;20030;-83
2021/10/08 08:06:45;;;;;;;1.92;1.58;;;16.70;81.50;;;;;;4808147;29;20041;-89
2021/10/08 08:09:11;;;;;;;2.53;1.65;;;16.80;81.50;;;;;;4851973;29;20496;-87
2021/10/08 08:11:37;;;;;;;3.28;2.30;;;16.90;81.60;;;;;;4856131;29;20036;-77
2021/10/08 08:14:03;;;;;;;3.97;2.05;;;16.90;81.50;;;;;;4855591;29;20029;-78
2021/10/08 08:16:29;;;;;;;3.13;2.25;;;16.90;81.50;;;;;;4858235;29;20879;-84
2021/10/08 08:18:55;;;;;;;3.25;2.78;;;17.00;81.50;;;;;;4846629;29;20041;-84
2021/10/08 08:21:22;;;;;;;3.95;2.40;;;17.00;81.50;;;;;;4837923;29;20038;-94
2021/10/08 08:23:48;;;;;;;2.28;1.88;;;17.10;81.60;;;;;;4839142;29;20030;-92
2021/10/08 08:26:14;;;;;;;2.53;2.05;;;17.10;81.50;;;;;;4839734;29;20406;-87
2021/10/08 08:28:40;;;;;;;3.70;1.60;;;17.10;81.40;;;;;;4838523;29;20530;-75
2021/10/08 08:31:07;;;;;;;2.40;1.63;;;17.20;81.50;;;;;;4838104;29;20038;-76
2021/10/08 08:33:35;;;;;;;2.50;1.83;;;17.20;81.40;;;;;;4838728;29;20478;-83
2021/10/08 08:36:03;;;;;;;1.77;1.40;;;17.20;81.20;;;;;;4838446;29;20052;-85
2021/10/08 08:38:29;;;;;;;2.50;1.55;;;17.30;81.30;;;;;;4846253;29;20037;-90
2021/10/08 08:40:57;;;;;;;2.13;1.92;;;17.30;81.20;;;;;;4853473;29;20053;-84
2021/10/08 08:43:23;;;;;;;3.47;1.55;;;17.40;81.40;;;;;;4851122;29;20268;-86
2021/10/08 08:45:49;;;;;;;1.80;1.40;;;17.50;81.40;;;;;;4856287;29;20131;-82
2021/10/08 08:48:15;;;;;;;2.50;1.48;;;17.50;81.30;;;;;;4848737;29;20125;-79
2021/10/08 08:50:45;;;;;;;1.85;1.30;;;17.50;81.20;;;;;;4837554;29;20044;-77
2021/10/08 08:53:13;;;;;;;1.70;1.35;;;17.60;81.30;;;;;;4837362;29;20486;-86
2021/10/08 08:55:40;;;;;;;2.35;1.50;;;17.70;81.40;;;;;;4837952;29;20095;-76
2021/10/08 08:58:05;;;;;;;1.92;1.65;;;17.70;81.50;;;;;;4841172;29;20174;-78
2021/10/08 09:00:32;;;;;;;3.13;1.70;;;17.80;81.20;;;;;;4854462;29;20052;-77
2021/10/08 09:03:00;;;;;;;1.58;1.35;;;18.00;81.40;;;;;;4849099;29;20887;-77
2021/10/08 09:05:32;;;;;;;2.72;1.38;;;18.00;81.30;;;;;;4836328;29;20042;-77
2021/10/08 09:08:04;;;;;;;1.77;1.25;;;18.00;81.20;;;;;;4850266;29;20040;-78
2021/10/08 09:10:33;;;;;;;1.90;1.43;;;18.10;81.20;;;;;;4834817;29;20030;-76
2021/10/08 09:12:59;;;;;;;1.98;1.30;;;18.10;81.00;;;;;;4840530;29;20041;-77
2021/10/08 09:15:28;;;;;;;1.92;1.67;;;18.20;81.10;;;;;;4854155;29;20571;-76
2021/10/08 09:18:08;;;;;;;2.45;1.55;;;18.20;81.00;;;;;;4850893;29;20062;-77
2021/10/08 09:20:36;;;;;;;2.13;1.30;;;18.20;80.90;;;;;;4835448;29;20041;-76
2021/10/08 09:23:02;;;;;;;1.60;1.50;;;18.30;81.00;;;;;;4835543;29;20034;-77
2021/10/08 09:25:30;;;;;;;2.33;1.65;;;18.30;80.90;;;;;;4835817;29;20609;-76
2021/10/08 09:28:10;;;;;;;1.52;1.33;;;18.30;80.80;;;;;;4834831;29;20318;-77
2021/10/08 09:30:39;;;;;;;2.13;1.15;;;18.30;80.70;;;;;;4835996;29;20434;-78
2021/10/08 09:33:08;;;;;;;2.97;1.65;;;18.40;80.80;;;;;;4835937;29;20161;-85
2021/10/08 09:35:35;;;;;;;3.33;1.55;;;18.40;80.80;;;;;;4836107;29;20490;-78
2021/10/08 09:38:07;;;;;;;3.25;1.70;;;18.40;80.70;;;;;;4834356;29;20491;-76
2021/10/08 09:40:36;;;;;;;2.70;1.65;;;18.40;80.60;;;;;;4833670;29;20046;-76
2021/10/08 09:43:08;;;;;;;2.70;1.55;;;18.40;80.50;;;;;;4833774;29;20150;-77
2021/10/08 09:45:40;;;;;;;2.40;1.70;;;18.50;80.60;;;;;;4836848;29;20059;-86
2021/10/08 09:48:07;;;;;;;1.98;1.63;;;18.50;80.50;;;;;;4848808;29;20042;-85
2021/10/08 09:50:34;;;;;;;2.30;1.45;;;18.60;80.60;;;;;;4840821;29;20482;-88
2021/10/08 09:53:26;;;;;;;3.42;1.77;;;18.60;80.50;;;;;;4847935;29;20029;-83
2021/10/08 09:55:53;;;;;;;2.55;1.58;;;18.70;80.50;;;;;;4857083;29;20045;-85
2021/10/08 09:58:21;;;;;;;4.90;1.77;;;18.70;80.40;;;;;;4859227;29;20181;-87
2021/10/08 10:00:59;;;;;;;3.13;1.50;;;18.80;80.50;;;;;;4859687;29;20057;-87
2021/10/08 10:03:25;;;;;;;3.20;1.73;;;18.80;80.40;;;;;;4858123;29;20074;-91
2021/10/08 10:05:52;;;;;;;2.50;1.63;;;18.80;80.30;;;;;;4858138;29;20033;-86
2021/10/08 10:08:18;;;;;;;3.38;1.50;;;18.90;80.40;;;;;;4852897;29;20038;-88
2021/10/08 10:10:46;;;;;;;2.65;1.65;;;18.90;80.30;;;;;;4842779;29;20117;-88
2021/10/08 10:13:13;;;;;;;2.45;1.73;;;18.90;80.20;;;;;;4841203;29;20082;-83
2021/10/08 10:15:41;;;;;;;2.17;1.60;;;18.90;80.00;;;;;;4839650;29;20037;-79
2021/10/08 10:18:11;;;;;;;3.15;2.17;;;19.00;80.10;;;;;;4851598;29;20033;-81
2021/10/08 10:20:39;;;;;;;2.28;1.73;;;19.00;80.00;;;;;;4839124;29;20478;-78
2021/10/08 10:23:07;;;;;;;2.60;1.58;;;19.00;79.90;;;;;;4844360;29;20040;-80
2021/10/08 10:25:34;;;;;;;2.85;1.80;;;19.10;80.00;;;;;;4842205;29;20117;-79
2021/10/08 10:28:01;;;;;;;4.20;2.00;;;19.10;79.90;;;;;;4854887;29;20038;-80
2021/10/08 10:30:27;;;;;;;2.85;2.38;;;19.20;80.00;;;;;;4857081;29;20061;-80
2021/10/08 10:32:54;;;;;;;2.53;1.90;;;19.20;79.90;;;;;;4856524;29;20089;-78
2021/10/08 10:35:41;;;;;;;3.15;2.10;;;19.30;79.90;;;;;;4854877;29;20089;-78
2021/10/08 10:38:26;;;;;;;1.80;1.65;;;19.30;79.80;;;;;;4855439;29;20038;-78
2021/10/08 10:41:07;;;;;;;2.47;2.00;;;19.40;79.80;;;;;;4855119;29;20145;-80
2021/10/08 10:43:35;;;;;;;3.15;1.98;;;19.40;79.70;;;;;;4854894;29;20103;-79
2021/10/08 10:54:43;;;;;;;3.85;2.88;;;19.70;79.50;;;;;;4838926;29;20030;-79
2021/10/08 10:57:18;;;;;;;3.63;2.28;;;19.70;79.30;;;;;;4839654;29;20129;-79
2021/10/08 10:59:44;;;;;;;3.65;2.45;;;19.80;79.40;;;;;;4849042;29;20061;-79
2021/10/08 11:02:17;;;;;;;3.88;2.38;;;19.80;79.20;;;;;;4856340;29;20056;-79
2021/10/08 11:04:49;;;;;;;4.03;2.20;;;19.90;79.20;;;;;;4855515;29;20231;-79
2021/10/08 11:07:17;;;;;;;2.53;2.05;;;19.90;79.10;;;;;;4856771;29;20120;-78
2021/10/08 11:10:10;;;;;;;3.38;2.30;;;19.90;79.00;;;;;;4856275;29;20037;-82
2021/10/08 11:12:40;;;;;;;3.22;2.20;;;20.00;79.10;;;;;;4839829;29;20053;-78
2021/10/08 11:15:18;;;;;;;3.45;2.42;;;20.00;79.00;;;;;;4854625;29;20711;-86
2021/10/08 11:17:54;;;;;;;4.30;2.45;;;20.00;78.90;;;;;;4854180;29;20093;-78
2021/10/08 11:20:32;;;;;;;4.90;2.80;;;20.00;78.80;;;;;;4838302;29;20049;-78
2021/10/08 11:23:04;;;;;;;4.38;2.50;;;20.10;78.90;;;;;;4841662;29;20064;-80
2021/10/08 11:25:33;;;;;;;3.22;2.38;;;20.10;78.80;;;;;;4853600;29;20025;-79
2021/10/08 11:28:00;;;;;;;5.03;2.67;;;20.10;78.80;;;;;;4853008;29;20090;-78
2021/10/08 11:30:28;;;;;;;3.00;2.65;;;20.10;78.70;;;;;;4836881;29;20042;-78
2021/10/08 11:32:56;;;;;;;4.43;2.50;;;20.10;78.60;;;;;;4837470;29;20590;-80
2021/10/08 11:35:33;;;;;;;4.70;3.20;;;20.20;78.70;;;;;;4837332;29;20037;-81
2021/10/08 11:38:01;;;;;;;4.40;2.42;;;20.20;78.60;;;;;;4840940;29;20042;-82
2021/10/08 11:40:26;;;;;;;4.10;2.47;;;20.20;78.60;;;;;;4856255;29;20052;-80
2021/10/08 11:42:59;;;;;;;3.28;2.75;;;20.20;78.50;;;;;;4855634;29;20033;-80
2021/10/08 11:45:34;;;;;;;4.20;2.92;;;20.30;78.60;;;;;;4855478;29;20501;-81
2021/10/08 11:48:11;;;;;;;3.90;2.40;;;20.30;78.40;;;;;;4842272;29;20058;-81
2021/10/08 11:53:03;;;;;;;4.03;2.35;;;20.40;78.50;;;;;;4854423;29;20168;-80
2021/10/08 11:55:38;;;;;;;3.25;2.90;;;20.40;78.40;;;;;;4855237;29;20120;-83
2021/10/08 11:58:09;;;;;;;3.80;2.75;;;20.50;78.50;;;;;;4855257;29;20541;-79
2021/10/08 12:00:36;;;;;;;4.20;2.30;;;20.40;78.20;;;;;;4855698;29;20503;-79
2021/10/08 12:03:10;;;;;;;5.43;3.17;;;20.50;78.30;;;;;;4854131;29;20052;-78
2021/10/08 12:05:41;;;;;;;4.63;3.17;;;20.60;78.40;;;;;;4854596;29;20042;-81
2021/10/08 12:08:11;;;;;;;3.92;3.00;;;20.60;78.30;;;;;;4869488;29;20040;-80
2021/10/08 12:10:49;;;;;;;4.03;2.95;;;20.60;78.30;;;;;;4853640;29;20037;-79
2021/10/08 12:13:15;;;;;;;4.50;3.22;;;20.60;78.20;;;;;;4855495;29;20037;-80
2021/10/08 12:15:42;;;;;;;4.00;3.03;;;20.60;78.10;;;;;;4855227;29;20592;-79
2021/10/08 12:18:14;;;;;;;4.57;3.20;;;20.60;78.00;;;;;;4850624;29;20034;-80
2021/10/08 12:20:41;;;;;;;4.53;3.30;;;20.70;78.20;;;;;;4837096;29;20079;-79
2021/10/08 12:23:23;;;;;;;4.32;2.97;;;20.70;78.20;;;;;;4837070;29;20053;-79
2021/10/08 12:25:54;;;;;;;5.07;2.97;;;20.70;78.10;;;;;;4837063;29;20046;-79
2021/10/08 12:28:22;;;;;;;5.05;3.30;;;20.80;78.20;;;;;;4836718;29;20033;-81
2021/10/08 12:31:05;;;;;;;4.20;3.45;;;20.80;78.20;;;;;;4835331;29;20034;-79
2021/10/08 12:33:35;;;;;;;6.40;2.85;;;20.80;78.10;;;;;;4836070;29;20040;-80
2021/10/08 12:36:13;;;;;;;4.82;3.08;;;20.90;78.30;;;;;;4835827;29;20082;-82
2021/10/08 12:39:00;;;;;;;4.05;3.28;;;20.90;78.20;;;;;;4845029;29;20030;-78
2021/10/08 12:41:31;;;;;;;5.72;3.50;;;20.90;78.20;;;;;;4838570;29;20053;-81
2021/10/08 12:44:24;;;;;;;4.13;3.38;;;20.90;78.10;;;;;;4842482;29;20466;-79
2021/10/08 12:47:12;;;;;;;4.53;2.55;;;21.00;78.20;;;;;;4843641;29;20041;-83
2021/10/08 12:50:00;;;;;;;5.25;2.88;;;21.00;78.10;;;;;;4853419;29;20045;-80
2021/10/08 12:52:37;;;;;;;5.15;3.13;;;21.00;78.00;;;;;;4852152;29;20037;-80
2021/10/08 12:55:09;;;;;;;4.03;3.63;;;21.00;78.00;;;;;;4834832;29;20053;-80
2021/10/08 12:58:05;;;;;;;4.43;2.90;;;21.00;77.90;;;;;;4836777;29;20502;-81
2021/10/08 13:00:36;;;;;;;3.50;3.00;;;21.00;77.80;;;;;;4837077;29;20069;-80
2021/10/08 13:03:03;;;;;;;6.15;3.75;;;21.00;77.80;;;;;;4841457;29;20045;-83
2021/10/08 13:05:41;;;;;;;4.82;3.40;;;21.00;77.70;;;;;;4853708;29;20029;-81
2021/10/08 13:08:20;;;;;;;4.72;3.75;;;21.10;77.80;;;;;;4853566;29;20112;-83
2021/10/08 13:11:07;;;;;;;7.47;3.45;;;21.10;77.80;;;;;;4853693;29;20039;-80